Time;durP1;ratioP1;P1;durP2;ratioP2;P2;SDS_P1;SDS_P2;PMS_P1;PMS_P2;Temp;Humidity;BMP_temperature;BMP_pressure;BME280_temperature;BME280_humidity;BME280_pressure;Samples;Min_cycle;Max_cycle;Signal;HPM_P1;HPM_P2
2022/12/11 00:00:09;;;;;;;27.52;13.25;;;-0.80;99.90;;;;;;5078427;28;20024;-69
2022/12/11 00:02:36;;;;;;;24.85;13.85;;;-0.80;99.90;;;;;;5096953;28;20028;-69
2022/12/11 00:05:04;;;;;;;28.08;13.60;;;-0.80;99.90;;;;;;5096648;28;20063;-69
2022/12/11 00:07:31;;;;;;;25.13;12.98;;;-0.80;99.90;;;;;;5096221;28;20078;-68
2022/12/11 00:09:59;;;;;;;27.77;12.88;;;-0.80;99.90;;;;;;5096440;28;20032;-69
2022/12/11 00:12:26;;;;;;;24.67;12.50;;;-0.80;99.90;;;;;;5078335;28;20028;-69
2022/12/11 00:14:53;;;;;;;23.05;11.48;;;-0.80;99.90;;;;;;5096834;28;20467;-68
2022/12/11 00:17:20;;;;;;;31.45;13.68;;;-0.80;99.90;;;;;;5096759;28;20133;-69
2022/12/11 00:19:48;;;;;;;32.70;15.60;;;-0.80;99.90;;;;;;5078438;28;20059;-69
2022/12/11 00:22:15;;;;;;;28.63;14.40;;;-0.80;99.90;;;;;;5078831;28;20085;-69
2022/12/11 00:24:43;;;;;;;25.45;13.07;;;-0.80;99.90;;;;;;5082082;28;20492;-69
2022/12/11 00:27:10;;;;;;;26.15;12.40;;;-0.80;99.90;;;;;;5081864;28;20024;-69
2022/12/11 00:29:38;;;;;;;23.98;13.30;;;-0.80;99.90;;;;;;5100699;28;20412;-69
2022/12/11 00:32:05;;;;;;;25.63;13.48;;;-0.70;99.90;;;;;;5081933;28;20035;-69
2022/12/11 00:34:32;;;;;;;28.33;12.98;;;-0.80;99.90;;;;;;5099884;28;20017;-69
2022/12/11 00:37:00;;;;;;;30.65;14.95;;;-0.70;99.90;;;;;;5100308;28;20020;-69
2022/12/11 00:39:27;;;;;;;26.55;14.35;;;-0.80;99.90;;;;;;5099959;28;20027;-68
2022/12/11 00:41:54;;;;;;;26.38;14.00;;;-0.70;99.90;;;;;;5100272;28;20293;-68
2022/12/11 00:44:22;;;;;;;24.60;13.15;;;-0.70;99.90;;;;;;5099738;28;20412;-68
2022/12/11 00:46:49;;;;;;;33.00;14.63;;;-0.70;99.90;;;;;;5100060;28;20115;-69
2022/12/11 00:49:17;;;;;;;27.90;13.25;;;-0.70;99.90;;;;;;5100117;28;20370;-68
2022/12/11 00:51:44;;;;;;;29.80;13.90;;;-0.70;99.90;;;;;;5100021;28;20023;-69
2022/12/11 00:54:11;;;;;;;29.00;14.77;;;-0.70;99.90;;;;;;5099783;28;20020;-69
2022/12/11 00:56:39;;;;;;;30.23;14.68;;;-0.70;99.90;;;;;;5099445;28;20016;-69
2022/12/11 00:59:07;;;;;;;35.08;16.02;;;-0.80;99.90;;;;;;5099398;28;20038;-68
2022/12/11 01:01:34;;;;;;;36.53;18.27;;;-0.80;99.90;;;;;;5100091;28;20099;-69
2022/12/11 01:04:02;;;;;;;30.60;15.45;;;-0.70;99.90;;;;;;5099875;28;20424;-69
2022/12/11 01:06:29;;;;;;;29.60;14.70;;;-0.70;99.90;;;;;;5098981;28;20062;-69
2022/12/11 01:11:43;;;;;;;31.50;14.38;;;-0.80;99.90;;;;;;5099454;28;20074;-68
2022/12/11 01:14:11;;;;;;;28.60;14.45;;;-0.80;99.90;;;;;;5099593;28;20354;-68
2022/12/11 01:16:39;;;;;;;32.35;15.13;;;-0.80;99.90;;;;;;5099620;28;20027;-69
2022/12/11 01:19:07;;;;;;;27.75;13.98;;;-0.80;99.90;;;;;;5099037;28;20019;-69
2022/12/11 01:21:34;;;;;;;31.05;14.10;;;-0.80;99.90;;;;;;5081181;28;20024;-69
2022/12/11 01:24:02;;;;;;;32.45;15.65;;;-0.80;99.90;;;;;;5081112;28;20041;-68
2022/12/11 01:26:29;;;;;;;28.40;15.15;;;-0.80;99.90;;;;;;5099123;28;20070;-68
2022/12/11 01:28:56;;;;;;;29.75;14.07;;;-0.80;99.90;;;;;;5098879;28;20021;-68
2022/12/11 01:31:24;;;;;;;29.25;14.70;;;-0.90;99.90;;;;;;5099038;28;20065;-69
2022/12/11 01:33:54;;;;;;;28.55;14.50;;;-0.80;99.90;;;;;;5097687;28;20027;-69
2022/12/11 01:36:22;;;;;;;49.47;21.67;;;-0.90;99.90;;;;;;5099177;28;20343;-68
2022/12/11 01:38:50;;;;;;;36.85;17.35;;;-0.80;99.90;;;;;;5081189;28;20533;-68
2022/12/11 01:41:18;;;;;;;33.72;17.13;;;-0.80;99.90;;;;;;5099126;28;20020;-69
2022/12/11 01:43:59;;;;;;;37.50;17.63;;;-0.80;99.90;;;;;;5098695;28;20024;-69
2022/12/11 01:46:28;;;;;;;30.90;15.55;;;-0.80;99.90;;;;;;5080510;28;20035;-69
2022/12/11 01:48:56;;;;;;;34.90;15.52;;;-0.80;99.90;;;;;;5098493;28;20431;-68
2022/12/11 01:51:25;;;;;;;32.85;16.10;;;-0.80;99.90;;;;;;5098684;28;20343;-68
2022/12/11 01:54:00;;;;;;;35.15;16.60;;;-0.80;99.90;;;;;;5098570;28;20024;-68
2022/12/11 01:56:33;;;;;;;33.47;15.38;;;-0.80;99.90;;;;;;5080348;28;20024;-68
2022/12/11 01:59:07;;;;;;;35.40;16.85;;;-0.80;99.90;;;;;;5098278;28;20024;-68
2022/12/11 02:01:45;;;;;;;30.33;14.95;;;-0.80;99.90;;;;;;5098206;28;20099;-68
2022/12/11 02:04:14;;;;;;;31.40;16.00;;;-0.80;99.90;;;;;;5098346;28;20040;-68
2022/12/11 02:06:48;;;;;;;33.58;15.88;;;-0.80;99.90;;;;;;5097791;28;20048;-69
2022/12/11 02:09:26;;;;;;;33.33;15.63;;;-0.80;99.90;;;;;;5098020;28;20099;-68
2022/12/11 02:12:03;;;;;;;30.52;14.57;;;-0.80;99.90;;;;;;5097962;28;20013;-69
2022/12/11 02:14:39;;;;;;;30.33;14.20;;;-0.80;99.90;;;;;;5098519;28;20025;-69
2022/12/11 02:17:21;;;;;;;31.33;14.88;;;-0.80;99.90;;;;;;5098382;28;20078;-69
2022/12/11 02:20:07;;;;;;;35.33;15.45;;;-0.80;99.90;;;;;;5097820;28;20058;-69
2022/12/11 02:22:59;;;;;;;28.90;14.48;;;-0.80;99.90;;;;;;5097720;28;20030;-68
2022/12/11 02:25:36;;;;;;;29.25;15.52;;;-0.80;99.90;;;;;;5098251;28;20400;-69
2022/12/11 02:28:13;;;;;;;35.25;16.25;;;-0.80;99.90;;;;;;5098160;28;20114;-69
2022/12/11 02:30:42;;;;;;;32.67;15.68;;;-0.80;99.90;;;;;;5098192;28;20016;-69
2022/12/11 02:33:13;;;;;;;31.45;16.30;;;-0.80;99.90;;;;;;5097876;28;20023;-69
2022/12/11 02:35:43;;;;;;;32.50;16.05;;;-0.80;99.90;;;;;;5079456;28;20077;-69
2022/12/11 02:38:21;;;;;;;35.20;15.95;;;-0.80;99.90;;;;;;5097489;28;20416;-69
2022/12/11 02:40:51;;;;;;;31.77;16.02;;;-0.80;99.90;;;;;;5097419;28;20016;-69
2022/12/11 02:43:19;;;;;;;32.50;15.70;;;-0.80;99.90;;;;;;5097571;28;20024;-69
2022/12/11 02:45:47;;;;;;;30.73;14.95;;;-0.80;99.90;;;;;;5096835;28;20020;-69
2022/12/11 02:48:18;;;;;;;32.65;15.65;;;-0.80;99.90;;;;;;5097327;28;20020;-68
2022/12/11 02:50:56;;;;;;;33.03;16.27;;;-0.80;99.90;;;;;;5097190;28;20031;-69
2022/12/11 02:53:28;;;;;;;30.55;15.02;;;-0.80;99.90;;;;;;5097351;28;20470;-69
2022/12/11 02:56:08;;;;;;;36.95;17.08;;;-0.80;99.90;;;;;;5097139;28;20078;-69
2022/12/11 02:58:43;;;;;;;37.05;16.27;;;-0.80;99.90;;;;;;5097188;28;20024;-69
2022/12/11 03:01:10;;;;;;;34.28;16.20;;;-0.80;99.90;;;;;;5097116;28;20107;-69
2022/12/11 03:03:38;;;;;;;36.00;17.85;;;-0.80;99.90;;;;;;5097336;28;20095;-68
2022/12/11 03:06:05;;;;;;;28.40;15.10;;;-0.80;99.90;;;;;;5096709;28;20051;-69
2022/12/11 03:08:33;;;;;;;39.42;17.85;;;-0.80;99.90;;;;;;5097055;28;20016;-69
2022/12/11 03:11:00;;;;;;;41.72;18.00;;;-0.70;99.90;;;;;;5096918;28;20017;-69
2022/12/11 03:13:27;;;;;;;41.03;17.85;;;-0.70;99.90;;;;;;5097331;28;20094;-68
2022/12/11 03:16:05;;;;;;;36.55;17.20;;;-0.70;99.90;;;;;;5096901;28;20099;-68
2022/12/11 03:18:46;;;;;;;33.78;16.70;;;-0.70;99.90;;;;;;5097472;28;20095;-68
2022/12/11 03:21:59;;;;;;;31.90;16.15;;;-0.70;99.90;;;;;;5097321;28;20018;-69
2022/12/11 03:24:46;;;;;;;29.38;15.20;;;-0.70;99.90;;;;;;5035013;28;20045;-69
2022/12/11 03:27:20;;;;;;;36.72;16.77;;;-0.70;99.90;;;;;;5093421;28;20028;-68
2022/12/11 03:30:02;;;;;;;32.45;16.70;;;-0.70;99.90;;;;;;5097300;28;20020;-69
2022/12/11 03:32:38;;;;;;;32.47;15.63;;;-0.70;99.90;;;;;;5097408;28;20021;-69
2022/12/11 03:35:33;;;;;;;35.80;16.77;;;-0.70;99.90;;;;;;5096965;28;20020;-68
2022/12/11 03:38:24;;;;;;;32.60;16.10;;;-0.70;99.90;;;;;;5096773;28;20055;-69
2022/12/11 03:40:57;;;;;;;35.10;15.68;;;-0.70;99.90;;;;;;5096600;28;20103;-68
2022/12/11 03:43:27;;;;;;;31.92;14.52;;;-0.70;99.90;;;;;;5096613;28;20024;-68
2022/12/11 03:45:56;;;;;;;32.15;16.10;;;-0.70;99.90;;;;;;5097043;28;20043;-68
2022/12/11 03:48:28;;;;;;;35.83;15.80;;;-0.80;99.90;;;;;;5096731;28;20028;-68
2022/12/11 03:50:55;;;;;;;32.70;15.68;;;-0.70;99.90;;;;;;5096470;28;20018;-68
2022/12/11 03:53:25;;;;;;;29.58;14.65;;;-0.70;99.90;;;;;;5096819;28;20016;-69
2022/12/11 03:55:57;;;;;;;34.08;16.25;;;-0.70;99.90;;;;;;5096474;28;20383;-69
2022/12/11 03:58:24;;;;;;;37.78;17.88;;;-0.70;99.90;;;;;;5099106;28;20316;-69
2022/12/11 04:00:52;;;;;;;34.53;16.02;;;-0.70;99.90;;;;;;5082585;28;20051;-68
2022/12/11 04:03:19;;;;;;;37.58;17.00;;;-0.70;99.90;;;;;;5100498;28;20046;-68
2022/12/11 04:05:49;;;;;;;36.70;17.10;;;-0.80;99.90;;;;;;5100139;28;20047;-68
2022/12/11 04:08:17;;;;;;;34.58;16.40;;;-0.80;99.90;;;;;;5100551;28;20030;-68
2022/12/11 04:10:45;;;;;;;38.08;17.35;;;-0.80;99.90;;;;;;5100910;28;20086;-69
2022/12/11 04:13:13;;;;;;;39.45;16.05;;;-0.80;99.90;;;;;;5100384;28;20020;-69
2022/12/11 04:15:40;;;;;;;38.50;16.73;;;-0.70;99.90;;;;;;5100821;28;20028;-69
2022/12/11 04:26:26;;;;;;;34.60;14.68;;;-0.70;99.90;;;;;;5100036;28;20039;-69
2022/12/11 04:28:54;;;;;;;36.30;15.02;;;-0.70;99.90;;;;;;5100710;28;20016;-68
2022/12/11 04:31:22;;;;;;;33.92;15.93;;;-0.70;99.90;;;;;;5099917;28;20024;-69
2022/12/11 04:33:49;;;;;;;33.35;15.48;;;-0.70;99.90;;;;;;5099921;28;20016;-69
2022/12/11 04:36:17;;;;;;;31.92;15.48;;;-0.70;99.90;;;;;;5099817;28;20350;-69
2022/12/11 04:38:44;;;;;;;32.90;14.50;;;-0.70;99.90;;;;;;5099842;28;20024;-68
2022/12/11 04:41:14;;;;;;;34.22;16.85;;;-0.70;99.90;;;;;;5100315;28;20401;-69
2022/12/11 04:43:45;;;;;;;29.88;15.02;;;-0.70;99.90;;;;;;5099754;28;20028;-69
2022/12/11 04:46:22;;;;;;;35.25;16.05;;;-0.70;99.90;;;;;;5100146;28;20107;-69
2022/12/11 04:48:49;;;;;;;;;;;-0.70;99.90;;;;;;5100237;28;20016;-69
2022/12/11 04:51:17;;;;;;;35.38;15.60;;;-0.70;99.90;;;;;;5100106;28;20266;-69
2022/12/11 04:53:45;;;;;;;30.73;14.55;;;-0.70;99.90;;;;;;5099595;28;20444;-69
2022/12/11 04:56:15;;;;;;;33.25;14.77;;;-0.70;99.90;;;;;;5099747;28;20035;-68
2022/12/11 04:58:43;;;;;;;29.85;14.65;;;-0.70;99.90;;;;;;5100184;28;20023;-69
2022/12/11 05:01:17;;;;;;;32.30;14.82;;;-0.70;99.90;;;;;;5081726;28;20321;-68
2022/12/11 05:03:44;;;;;;;30.27;14.15;;;-0.70;99.90;;;;;;5099391;28;20016;-69
2022/12/11 05:06:12;;;;;;;29.13;14.63;;;-0.70;99.90;;;;;;5099181;28;20058;-69
2022/12/11 05:08:41;;;;;;;37.28;15.50;;;-0.70;99.90;;;;;;5081175;28;20024;-69
2022/12/11 05:11:10;;;;;;;31.00;14.88;;;-0.70;99.90;;;;;;5099276;28;20020;-70
2022/12/11 05:13:38;;;;;;;33.40;15.23;;;-0.70;99.90;;;;;;5099140;28;20043;-69
2022/12/11 05:16:07;;;;;;;35.25;15.18;;;-0.70;99.90;;;;;;5099697;28;20103;-69
2022/12/11 05:18:35;;;;;;;33.03;15.35;;;-0.70;99.90;;;;;;5099247;28;20103;-69
2022/12/11 05:21:06;;;;;;;32.55;15.18;;;-0.70;99.90;;;;;;5081009;28;20024;-68
2022/12/11 05:23:34;;;;;;;32.28;15.43;;;-0.70;99.90;;;;;;5099012;28;20024;-69
2022/12/11 05:26:07;;;;;;;31.40;14.70;;;-0.70;99.90;;;;;;5080884;28;20048;-68
2022/12/11 05:28:37;;;;;;;30.63;14.82;;;-0.70;99.90;;;;;;5099083;28;20024;-68
2022/12/11 05:31:26;;;;;;;32.85;15.48;;;-0.60;99.90;;;;;;5099384;28;20134;-68
2022/12/11 05:33:53;;;;;;;34.58;15.68;;;-0.60;99.90;;;;;;5098806;28;20016;-68
2022/12/11 05:36:31;;;;;;;38.28;15.63;;;-0.60;99.90;;;;;;5098693;28;20412;-69
2022/12/11 05:38:59;;;;;;;33.83;15.35;;;-0.70;99.90;;;;;;5098842;28;20035;-69
2022/12/11 05:41:31;;;;;;;33.30;14.63;;;-0.70;99.90;;;;;;5099174;28;20024;-69
2022/12/11 05:43:59;;;;;;;31.63;15.68;;;-0.70;99.90;;;;;;5098619;28;20071;-69
2022/12/11 05:46:28;;;;;;;34.50;15.60;;;-0.70;99.90;;;;;;5098981;28;20056;-68
2022/12/11 05:48:58;;;;;;;33.70;15.20;;;-0.70;99.90;;;;;;5098674;28;20020;-69
2022/12/11 05:51:26;;;;;;;35.45;15.77;;;-0.70;99.90;;;;;;5098734;28;20024;-68
2022/12/11 05:53:54;;;;;;;31.63;16.23;;;-0.70;99.90;;;;;;5098352;28;20069;-69
2022/12/11 05:56:25;;;;;;;31.15;15.52;;;-0.70;99.90;;;;;;5080362;28;20030;-69
2022/12/11 05:58:53;;;;;;;34.35;15.88;;;-0.70;99.90;;;;;;5098365;28;20358;-69
2022/12/11 06:01:27;;;;;;;35.22;15.10;;;-0.70;99.90;;;;;;5098800;28;20400;-69
2022/12/11 06:03:56;;;;;;;36.70;15.75;;;-0.70;99.90;;;;;;5098211;28;20027;-69
2022/12/11 06:06:24;;;;;;;34.65;16.35;;;-0.70;99.90;;;;;;5097815;28;20332;-69
2022/12/11 06:08:53;;;;;;;34.47;16.27;;;-0.70;99.90;;;;;;5098257;28;20012;-68
2022/12/11 06:11:21;;;;;;;38.85;16.58;;;-0.70;99.90;;;;;;5098528;28;20016;-69
2022/12/11 06:13:48;;;;;;;40.10;16.13;;;-0.70;99.90;;;;;;5080032;28;20028;-69
2022/12/11 06:16:16;;;;;;;34.83;16.17;;;-0.70;99.90;;;;;;5079905;28;20035;-68
2022/12/11 06:18:44;;;;;;;37.80;16.60;;;-0.70;99.90;;;;;;5098125;28;20078;-68
2022/12/11 06:21:23;;;;;;;35.70;17.27;;;-0.70;99.90;;;;;;5097082;28;20020;-69
2022/12/11 06:23:52;;;;;;;34.25;16.35;;;-0.70;99.90;;;;;;5097792;28;20043;-69
2022/12/11 06:26:20;;;;;;;39.17;16.95;;;-0.70;99.90;;;;;;5097560;28;20047;-69
2022/12/11 06:28:48;;;;;;;35.92;17.38;;;-0.70;99.90;;;;;;5098133;28;20024;-69
2022/12/11 06:31:16;;;;;;;38.17;16.88;;;-0.70;99.90;;;;;;5079615;28;20052;-69
2022/12/11 06:33:44;;;;;;;37.72;17.27;;;-0.70;99.90;;;;;;5097612;28;20103;-69
2022/12/11 06:36:13;;;;;;;39.88;18.48;;;-0.70;99.90;;;;;;5098025;28;20093;-69
2022/12/11 06:38:41;;;;;;;42.60;18.65;;;-0.70;99.90;;;;;;5097596;28;20048;-69
2022/12/11 06:41:10;;;;;;;38.63;17.25;;;-0.70;99.90;;;;;;5097942;28;20448;-69
2022/12/11 06:43:39;;;;;;;37.70;18.13;;;-0.70;99.90;;;;;;5097965;28;20030;-68
2022/12/11 06:46:08;;;;;;;39.45;16.80;;;-0.70;99.90;;;;;;5097216;28;20202;-70
2022/12/11 06:48:35;;;;;;;39.35;17.92;;;-0.70;99.90;;;;;;5098020;28;20383;-68
2022/12/11 06:51:11;;;;;;;46.58;19.38;;;-0.70;99.90;;;;;;5097400;28;20057;-68
2022/12/11 06:53:39;;;;;;;39.80;19.05;;;-0.70;99.90;;;;;;5097258;28;20012;-68
2022/12/11 06:56:09;;;;;;;42.00;18.52;;;-0.70;99.90;;;;;;5097127;28;20032;-69
2022/12/11 06:58:37;;;;;;;40.00;18.08;;;-0.70;99.90;;;;;;5079316;28;20024;-69
2022/12/11 07:01:13;;;;;;;42.17;19.65;;;-0.70;99.90;;;;;;5097030;28;20031;-69
2022/12/11 07:03:40;;;;;;;42.90;18.63;;;-0.70;99.90;;;;;;5097097;28;20066;-69
2022/12/11 07:06:07;;;;;;;39.00;17.30;;;-0.70;99.90;;;;;;5096952;28;20051;-69
2022/12/11 07:08:35;;;;;;;35.88;17.27;;;-0.70;99.90;;;;;;5097549;28;20111;-68
2022/12/11 07:11:08;;;;;;;42.55;20.10;;;-0.70;99.90;;;;;;5097266;28;20020;-69
2022/12/11 07:13:35;;;;;;;41.38;19.13;;;-0.70;99.90;;;;;;5096949;28;20432;-69
2022/12/11 07:16:09;;;;;;;40.20;16.60;;;-0.70;99.90;;;;;;5097086;28;20048;-70
2022/12/11 07:18:38;;;;;;;39.22;18.48;;;-0.70;99.90;;;;;;5079028;28;20020;-70
2022/12/11 07:21:07;;;;;;;42.88;19.20;;;-0.70;99.90;;;;;;5096703;28;20035;-70
2022/12/11 07:23:35;;;;;;;46.40;19.38;;;-0.70;99.90;;;;;;5097374;28;20016;-70
2022/12/11 07:26:07;;;;;;;41.47;17.52;;;-0.70;99.90;;;;;;5096666;28;20030;-70
2022/12/11 07:28:35;;;;;;;39.97;16.83;;;-0.70;99.90;;;;;;5078974;28;20438;-70
2022/12/11 07:31:07;;;;;;;44.45;17.55;;;-0.70;99.90;;;;;;5096616;28;20052;-70
2022/12/11 07:33:35;;;;;;;39.88;17.73;;;-0.70;99.90;;;;;;5078792;28;20020;-70
2022/12/11 07:36:08;;;;;;;39.83;17.58;;;-0.70;99.90;;;;;;5096578;28;20016;-70
2022/12/11 07:38:36;;;;;;;44.63;19.95;;;-0.70;99.90;;;;;;5096788;28;20218;-69
2022/12/11 07:41:05;;;;;;;45.17;20.40;;;-0.70;99.90;;;;;;5096554;28;20016;-70
2022/12/11 07:43:34;;;;;;;43.15;18.50;;;-0.70;99.90;;;;;;5096588;28;20028;-73
2022/12/11 07:46:13;;;;;;;42.72;19.00;;;-0.70;99.90;;;;;;5078547;28;20103;-72
2022/12/11 07:48:41;;;;;;;43.00;19.05;;;-0.70;99.90;;;;;;5096670;28;20413;-73
2022/12/11 07:51:16;;;;;;;46.30;19.13;;;-0.70;99.90;;;;;;5096916;28;20025;-73
2022/12/11 07:53:44;;;;;;;46.20;18.98;;;-0.70;99.90;;;;;;5096562;28;20073;-73
2022/12/11 07:56:12;;;;;;;45.03;19.02;;;-0.70;99.90;;;;;;5078016;28;20024;-73
2022/12/11 07:58:40;;;;;;;46.47;20.30;;;-0.70;99.90;;;;;;5078703;28;20028;-73
2022/12/11 08:01:12;;;;;;;49.78;20.98;;;-0.70;99.90;;;;;;5096444;28;20021;-73
2022/12/11 08:03:40;;;;;;;43.67;20.15;;;-0.70;99.90;;;;;;5095970;28;20032;-73
2022/12/11 08:06:07;;;;;;;49.50;19.30;;;-0.70;99.90;;;;;;5074760;28;20051;-73
2022/12/11 08:08:35;;;;;;;47.30;21.27;;;-0.70;99.90;;;;;;5076310;28;20016;-73
2022/12/11 08:11:04;;;;;;;47.78;20.10;;;-0.70;99.90;;;;;;5076124;28;20412;-73
2022/12/11 08:13:31;;;;;;;45.90;19.75;;;-0.70;99.90;;;;;;5075044;28;20056;-73
2022/12/11 08:16:03;;;;;;;54.22;21.10;;;-0.70;99.90;;;;;;5074949;28;20059;-80
2022/12/11 08:18:31;;;;;;;48.50;20.23;;;-0.70;99.90;;;;;;5076315;28;20044;-75
2022/12/11 08:20:59;;;;;;;49.40;21.15;;;-0.70;99.90;;;;;;5076200;28;20016;-76
2022/12/11 08:23:26;;;;;;;48.75;20.73;;;-0.60;99.90;;;;;;5074975;28;20029;-76
2022/12/11 08:25:53;;;;;;;51.50;21.58;;;-0.60;99.90;;;;;;5076027;28;20021;-76
2022/12/11 08:28:21;;;;;;;47.67;20.70;;;-0.60;99.90;;;;;;5075966;28;20344;-76
2022/12/11 08:30:48;;;;;;;48.42;21.42;;;-0.60;99.90;;;;;;5075949;28;20016;-76
2022/12/11 08:33:15;;;;;;;46.75;21.80;;;-0.60;99.90;;;;;;5075281;28;20070;-76
2022/12/11 08:35:45;;;;;;;53.50;21.88;;;-0.60;99.90;;;;;;5076141;28;20020;-76
2022/12/11 08:38:12;;;;;;;50.15;21.75;;;-0.60;99.90;;;;;;5075920;28;20166;-76
2022/12/11 08:40:40;;;;;;;47.17;21.63;;;-0.60;99.90;;;;;;5075819;28;20031;-76
2022/12/11 08:43:07;;;;;;;51.35;21.17;;;-0.60;99.90;;;;;;5076658;28;20103;-78
2022/12/11 08:45:34;;;;;;;48.88;21.33;;;-0.50;99.90;;;;;;5079731;28;20039;-76
2022/12/11 08:48:01;;;;;;;51.40;20.60;;;-0.50;99.90;;;;;;5078298;28;20036;-76
2022/12/11 08:50:29;;;;;;;49.83;20.52;;;-0.50;99.90;;;;;;5078549;28;20122;-71
2022/12/11 08:52:57;;;;;;;47.08;20.20;;;-0.50;99.90;;;;;;5080059;28;20151;-71
2022/12/11 08:55:24;;;;;;;50.05;21.80;;;-0.50;99.90;;;;;;5078268;28;20048;-70
2022/12/11 08:57:52;;;;;;;50.45;22.23;;;-0.50;99.90;;;;;;5079575;28;20028;-74
2022/12/11 09:00:19;;;;;;;51.75;21.02;;;-0.40;99.90;;;;;;5079226;28;20028;-73
2022/12/11 09:02:47;;;;;;;55.03;23.17;;;-0.50;99.90;;;;;;5079877;28;20451;-73
2022/12/11 09:05:14;;;;;;;48.03;23.27;;;-0.50;99.90;;;;;;5077873;28;20056;-71
2022/12/11 09:07:42;;;;;;;53.42;23.35;;;-0.50;99.90;;;;;;5079554;28;20115;-74
2022/12/11 09:10:10;;;;;;;56.45;22.15;;;-0.50;99.90;;;;;;5079038;28;20021;-72
2022/12/11 09:12:37;;;;;;;53.72;23.00;;;-0.40;99.90;;;;;;5079182;28;20024;-72
2022/12/11 09:15:05;;;;;;;53.58;22.00;;;-0.40;99.90;;;;;;5077895;28;20025;-72
2022/12/11 09:17:34;;;;;;;48.60;20.63;;;-0.40;99.90;;;;;;5078966;28;20321;-72
2022/12/11 09:20:04;;;;;;;50.20;20.88;;;-0.40;99.90;;;;;;5078855;28;20043;-72
2022/12/11 09:22:32;;;;;;;48.95;21.52;;;-0.40;99.90;;;;;;5078917;28;20412;-72
2022/12/11 09:25:00;;;;;;;51.05;21.92;;;-0.30;99.90;;;;;;5077934;28;20032;-72
2022/12/11 09:27:28;;;;;;;53.80;22.13;;;-0.30;99.90;;;;;;5079223;28;20028;-72
2022/12/11 09:29:56;;;;;;;47.40;20.95;;;-0.30;99.90;;;;;;5077899;28;20047;-71
2022/12/11 09:32:23;;;;;;;51.20;20.98;;;-0.30;99.90;;;;;;5077743;28;20024;-77
2022/12/11 09:34:51;;;;;;;47.35;20.67;;;-0.30;99.90;;;;;;5077490;28;20024;-74
2022/12/11 09:37:18;;;;;;;51.13;21.08;;;-0.30;99.90;;;;;;5078514;28;20213;-73
2022/12/11 09:39:45;;;;;;;53.63;21.38;;;-0.20;99.90;;;;;;5077412;28;20032;-72
2022/12/11 09:42:41;;;;;;;47.92;20.90;;;-0.20;99.90;;;;;;5077896;28;20340;-73
2022/12/11 09:45:14;;;;;;;50.42;21.42;;;-0.20;99.90;;;;;;5078638;28;20327;-73
2022/12/11 09:47:49;;;;;;;49.70;22.08;;;-0.20;99.90;;;;;;5078552;28;20032;-74
2022/12/11 09:50:28;;;;;;;44.20;20.25;;;-0.10;99.90;;;;;;5078455;28;20409;-73
2022/12/11 09:53:15;;;;;;;47.10;20.42;;;-0.10;99.90;;;;;;5077187;28;20032;-73
2022/12/11 09:55:51;;;;;;;48.17;20.48;;;-0.10;99.90;;;;;;5076567;28;20427;-73
2022/12/11 09:58:32;;;;;;;48.30;20.90;;;-0.10;99.90;;;;;;5077226;28;20028;-73
2022/12/11 10:01:33;;;;;;;44.72;19.92;;;0.00;99.90;;;;;;5078333;28;20020;-73
2022/12/11 10:04:13;;;;;;;48.05;20.38;;;0.00;99.90;;;;;;5077229;28;20032;-73
2022/12/11 10:07:05;;;;;;;49.30;21.02;;;0.00;99.90;;;;;;5094578;28;20067;-73
2022/12/11 10:09:55;;;;;;;53.35;20.05;;;0.00;99.90;;;;;;5080362;28;20020;-73
2022/12/11 10:12:32;;;;;;;49.50;21.08;;;0.00;99.90;;;;;;5080158;28;20028;-73
2022/12/11 10:15:30;;;;;;;52.50;21.42;;;0.00;99.90;;;;;;5098593;28;20085;-74
2022/12/11 10:17:59;;;;;;;46.60;20.92;;;0.10;99.90;;;;;;5080171;28;20058;-73
2022/12/11 10:20:39;;;;;;;50.35;21.05;;;0.10;99.90;;;;;;5097924;28;20024;-74
2022/12/11 10:23:09;;;;;;;52.20;22.08;;;0.00;99.90;;;;;;5097915;28;20032;-71
2022/12/11 10:25:45;;;;;;;204.20;62.20;;;0.00;99.90;;;;;;5097816;28;20028;-74
2022/12/11 10:28:19;;;;;;;71.45;27.38;;;0.00;99.90;;;;;;5097926;28;20132;-72
2022/12/11 10:31:10;;;;;;;56.60;22.45;;;0.10;99.90;;;;;;5097737;28;20024;-72
2022/12/11 10:33:56;;;;;;;47.05;19.90;;;0.10;99.90;;;;;;5097995;28;20066;-72
2022/12/11 10:36:35;;;;;;;46.78;21.05;;;0.10;99.90;;;;;;5097925;28;20020;-72
2022/12/11 10:39:11;;;;;;;51.35;20.48;;;0.10;99.90;;;;;;5079792;28;20070;-72
2022/12/11 10:41:42;;;;;;;47.10;21.25;;;0.20;99.90;;;;;;5097766;28;20027;-72
2022/12/11 10:44:22;;;;;;;44.42;19.08;;;0.20;99.90;;;;;;5097668;28;20052;-72
2022/12/11 10:47:10;;;;;;;50.80;20.88;;;0.20;99.90;;;;;;5079347;28;20089;-72
2022/12/11 10:49:43;;;;;;;45.85;20.67;;;0.20;99.90;;;;;;5097936;28;20031;-71
2022/12/11 10:52:20;;;;;;;50.28;20.27;;;0.20;99.90;;;;;;5079305;28;20031;-71
2022/12/11 10:54:58;;;;;;;52.13;20.85;;;0.20;99.90;;;;;;5079589;28;20293;-71
2022/12/11 10:57:31;;;;;;;60.03;24.20;;;0.20;99.90;;;;;;5097232;28;20144;-73
2022/12/11 10:59:59;;;;;;;47.30;20.65;;;0.30;99.90;;;;;;5079252;28;20035;-72
2022/12/11 11:02:40;;;;;;;50.20;20.30;;;0.30;99.90;;;;;;5097151;28;20028;-72
2022/12/11 11:05:17;;;;;;;44.50;20.27;;;0.30;99.90;;;;;;5075618;28;20075;-74
2022/12/11 11:07:45;;;;;;;43.88;18.38;;;0.30;99.90;;;;;;5076580;28;20052;-74
2022/12/11 11:10:12;;;;;;;42.42;17.25;;;0.30;99.90;;;;;;5077049;28;20317;-74
2022/12/11 11:12:42;;;;;;;42.10;18.08;;;0.30;99.90;;;;;;5075731;28;20051;-75
2022/12/11 11:15:14;;;;;;;42.97;18.92;;;0.40;99.90;;;;;;5075506;28;20016;-72
2022/12/11 11:17:50;;;;;;;39.58;17.02;;;0.40;99.90;;;;;;5076878;28;20082;-72
2022/12/11 11:20:21;;;;;;;38.83;18.55;;;0.40;99.90;;;;;;5075523;28;20024;-76
2022/12/11 11:22:56;;;;;;;43.42;19.05;;;0.40;99.90;;;;;;5075451;28;20123;-72
2022/12/11 11:25:28;;;;;;;44.15;18.63;;;0.50;99.90;;;;;;5077047;28;20025;-72
2022/12/11 11:27:57;;;;;;;43.35;18.95;;;0.50;99.90;;;;;;5076616;28;20032;-72
2022/12/11 11:30:41;;;;;;;42.42;17.35;;;0.50;99.90;;;;;;5076524;28;20048;-72
2022/12/11 11:33:21;;;;;;;41.60;18.52;;;0.50;99.90;;;;;;5076554;28;20021;-72
2022/12/11 11:35:58;;;;;;;45.30;19.70;;;0.50;99.90;;;;;;5076296;28;20035;-72
2022/12/11 11:38:28;;;;;;;;;;;0.50;99.90;;;;;;5077024;28;20024;-72
2022/12/11 11:40:58;;;;;;;55.22;19.13;;;0.50;99.90;;;;;;5076735;28;19958;-72
2022/12/11 11:43:45;;;;;;;58.33;21.08;;;0.50;99.90;;;;;;5077016;28;20460;-72
2022/12/11 11:46:28;;;;;;;64.72;23.25;;;0.50;99.90;;;;;;5076345;28;20068;-72
2022/12/11 11:49:05;;;;;;;42.35;17.92;;;0.50;99.90;;;;;;5076563;28;20032;-72
2022/12/11 11:51:49;;;;;;;47.30;17.92;;;0.50;99.90;;;;;;5076224;28;20021;-72
2022/12/11 11:54:36;;;;;;;43.97;17.27;;;0.50;99.90;;;;;;5076313;28;20021;-72
2022/12/11 11:57:23;;;;;;;43.35;17.23;;;0.50;99.90;;;;;;5076479;28;20021;-72
2022/12/11 12:00:08;;;;;;;42.67;19.08;;;0.40;99.90;;;;;;5076237;28;20028;-72
2022/12/11 12:02:36;;;;;;;42.63;17.65;;;0.30;99.90;;;;;;5076059;28;20329;-72
2022/12/11 12:05:04;;;;;;;49.45;19.90;;;0.30;99.90;;;;;;5079698;28;20055;-72
2022/12/11 12:07:52;;;;;;;41.30;16.00;;;0.30;99.90;;;;;;5096334;28;20317;-74
2022/12/11 12:10:42;;;;;;;46.25;17.13;;;0.30;99.90;;;;;;5096315;28;20046;-72
2022/12/11 12:13:17;;;;;;;47.38;17.45;;;0.30;99.90;;;;;;5096557;28;20020;-72
2022/12/11 12:16:00;;;;;;;38.60;17.40;;;0.30;99.90;;;;;;5096872;28;20016;-72
2022/12/11 12:18:48;;;;;;;47.60;17.20;;;0.30;99.90;;;;;;5097158;28;20077;-75
2022/12/11 12:21:32;;;;;;;45.40;18.40;;;0.30;99.90;;;;;;5100727;28;20023;-73
2022/12/11 12:24:21;;;;;;;44.88;18.20;;;0.30;99.90;;;;;;5100601;28;20016;-73
2022/12/11 12:27:07;;;;;;;42.17;17.55;;;0.30;99.90;;;;;;5100295;28;20024;-72
2022/12/11 12:29:45;;;;;;;41.65;18.00;;;0.30;99.90;;;;;;5100108;28;20047;-75
2022/12/11 12:32:25;;;;;;;51.15;18.90;;;0.40;99.90;;;;;;5100465;28;20095;-73
2022/12/11 12:35:03;;;;;;;48.53;19.02;;;0.40;99.90;;;;;;5099971;28;20413;-74
2022/12/11 12:37:49;;;;;;;45.30;18.45;;;0.40;99.90;;;;;;5099953;28;20305;-75
2022/12/11 12:40:36;;;;;;;48.97;18.48;;;0.40;99.90;;;;;;5099910;28;20052;-74
2022/12/11 12:43:31;;;;;;;47.45;18.23;;;0.40;99.90;;;;;;5100010;28;20024;-74
2022/12/11 12:46:10;;;;;;;40.30;18.17;;;0.40;99.90;;;;;;5099742;28;20415;-73
2022/12/11 12:48:37;;;;;;;42.10;19.38;;;0.40;99.90;;;;;;5099688;28;20077;-75
2022/12/11 12:51:05;;;;;;;42.45;17.77;;;0.40;99.90;;;;;;5099553;28;20099;-71
2022/12/11 12:53:37;;;;;;;42.83;16.98;;;0.40;99.90;;;;;;5099703;28;20024;-72
2022/12/11 12:56:06;;;;;;;47.88;18.50;;;0.40;99.90;;;;;;5099614;28;20036;-72
2022/12/11 12:58:42;;;;;;;46.63;18.05;;;0.40;99.90;;;;;;5099647;28;20084;-73
2022/12/11 13:01:19;;;;;;;41.50;17.13;;;0.40;99.90;;;;;;5100008;28;20024;-71
2022/12/11 13:03:53;;;;;;;37.20;15.50;;;0.40;99.90;;;;;;5099520;28;20511;-71
2022/12/11 13:06:41;;;;;;;43.88;15.70;;;0.40;99.90;;;;;;5098881;28;20163;-73